RYR5EC LYNI-LOWW
Flight info
| Callsign | RYR5EC |
|---|---|
| Flight time | N/A |
| Altitude | 36000 |
| Route | RAVAK DCT NEPOS DCT OKLOP DCT OSVIX DCT PARAK DCT BALUX DCT TORNO DCT NATEX NATEX2W |
| Aircraft | A320/M-SDE3FGHIRWY/LB1 |
Departure
| Time | 2026-05-08 18:56 |
|---|---|
| Airport | Niš Constantine the Great Airport (LYNI) |
Arrival
| Time | N/A |
|---|---|
| Airport | Vienna International Airport (LOWW) |
| Time | Latitude | Longitude | Altitude | Speed | Heading |
|---|---|---|---|---|---|
| 2026-05-08 18:24 | 43.33703 | 21.86571 | 662 ft | 0 kts | 79° |
| 2026-05-08 18:49 | 43.33702 | 21.86563 | 662 ft | 2 kts | 71° |
| 2026-05-08 18:49 | 43.33693 | 21.86547 | 661 ft | 2 kts | 45° |
| 2026-05-08 18:49 | 43.33684 | 21.86531 | 660 ft | 2 kts | 52° |
| 2026-05-08 18:49 | 43.33674 | 21.86515 | 660 ft | 2 kts | 66° |
| 2026-05-08 18:50 | 43.33673 | 21.86496 | 659 ft | 1 kts | 108° |
| 2026-05-08 18:50 | 43.33675 | 21.86488 | 659 ft | 1 kts | 118° |
| 2026-05-08 18:50 | 43.33676 | 21.86484 | 659 ft | 0 kts | 115° |
| 2026-05-08 18:53 | 43.33676 | 21.86485 | 659 ft | 0 kts | 115° |
| 2026-05-08 18:53 | 43.33663 | 21.86525 | 660 ft | 4 kts | 113° |
| 2026-05-08 18:53 | 43.33643 | 21.86588 | 660 ft | 8 kts | 114° |
| 2026-05-08 18:54 | 43.33609 | 21.86656 | 661 ft | 10 kts | 146° |
| 2026-05-08 18:54 | 43.33534 | 21.86698 | 660 ft | 11 kts | 175° |
| 2026-05-08 18:54 | 43.33461 | 21.86682 | 658 ft | 8 kts | 204° |
| 2026-05-08 18:54 | 43.33403 | 21.86641 | 657 ft | 10 kts | 206° |
| 2026-05-08 18:55 | 43.33366 | 21.86499 | 653 ft | 17 kts | 294° |
| 2026-05-08 18:55 | 43.33511 | 21.86051 | 651 ft | 92 kts | 294° |
| 2026-05-08 18:55 | 43.33873 | 21.84910 | 652 ft | 161 kts | 292° |
| 2026-05-08 18:56 | 43.34343 | 21.83443 | 1257 ft | 172 kts | 294° |
| 2026-05-08 18:56 | 43.35080 | 21.82184 | 2049 ft | 175 kts | 331° |
| 2026-05-08 18:56 | 43.36195 | 21.81515 | 2781 ft | 183 kts | 338° |
| 2026-05-08 18:56 | 43.37438 | 21.80823 | 3335 ft | 201 kts | 339° |
| 2026-05-08 18:57 | 43.38821 | 21.80058 | 3847 ft | 222 kts | 339° |
| 2026-05-08 18:57 | 43.39803 | 21.79512 | 4201 ft | 237 kts | 339° |
| 2026-05-08 18:57 | 43.41969 | 21.78307 | 4954 ft | 263 kts | 339° |
| 2026-05-08 18:57 | 43.43711 | 21.77335 | 5625 ft | 276 kts | 340° |
| 2026-05-08 18:58 | 43.45492 | 21.76338 | 6426 ft | 282 kts | 340° |
| 2026-05-08 18:58 | 43.47305 | 21.75322 | 7249 ft | 286 kts | 340° |
| 2026-05-08 18:58 | 43.49153 | 21.74256 | 8083 ft | 290 kts | 339° |
| 2026-05-08 18:58 | 43.51024 | 21.73153 | 8893 ft | 294 kts | 339° |
| 2026-05-08 18:59 | 43.52900 | 21.72047 | 9699 ft | 298 kts | 339° |
| 2026-05-08 18:59 | 43.54814 | 21.70920 | 10482 ft | 302 kts | 339° |
| 2026-05-08 18:59 | 43.56751 | 21.69779 | 11264 ft | 306 kts | 339° |
| 2026-05-08 18:59 | 43.58700 | 21.68631 | 12046 ft | 309 kts | 339° |
| 2026-05-08 19:00 | 43.60024 | 21.67851 | 12552 ft | 311 kts | 339° |
| 2026-05-08 19:00 | 43.62691 | 21.66279 | 13537 ft | 316 kts | 339° |
| 2026-05-08 19:00 | 43.64714 | 21.65087 | 14240 ft | 320 kts | 339° |
| 2026-05-08 19:00 | 43.66789 | 21.63864 | 14933 ft | 324 kts | 338° |
| 2026-05-08 19:01 | 43.68842 | 21.62652 | 15585 ft | 327 kts | 338° |
| 2026-05-08 19:01 | 43.70970 | 21.61395 | 16085 ft | 337 kts | 338° |
| 2026-05-08 19:01 | 43.73180 | 21.60088 | 16374 ft | 353 kts | 338° |
| 2026-05-08 19:01 | 43.75492 | 21.58720 | 16615 ft | 368 kts | 338° |
| 2026-05-08 19:02 | 43.77908 | 21.57289 | 16891 ft | 380 kts | 338° |
| 2026-05-08 19:02 | 43.80347 | 21.55841 | 17345 ft | 386 kts | 338° |
| 2026-05-08 19:02 | 43.82839 | 21.54361 | 17855 ft | 390 kts | 338° |
| 2026-05-08 19:02 | 43.85358 | 21.52863 | 18373 ft | 394 kts | 338° |
| 2026-05-08 19:03 | 43.87900 | 21.51349 | 18882 ft | 397 kts | 338° |
| 2026-05-08 19:03 | 43.90429 | 21.49843 | 19413 ft | 399 kts | 337° |
| 2026-05-08 19:03 | 43.93005 | 21.48306 | 19940 ft | 401 kts | 337° |
| 2026-05-08 19:03 | 43.95548 | 21.46789 | 20453 ft | 403 kts | 337° |
| 2026-05-08 19:04 | 43.98145 | 21.45237 | 20933 ft | 405 kts | 337° |
| 2026-05-08 19:04 | 44.00722 | 21.43697 | 21404 ft | 408 kts | 337° |
| 2026-05-08 19:04 | 44.03345 | 21.42132 | 21871 ft | 410 kts | 337° |
| 2026-05-08 19:04 | 44.05984 | 21.40560 | 22344 ft | 411 kts | 337° |
| 2026-05-08 19:05 | 44.08609 | 21.38994 | 22800 ft | 413 kts | 337° |
| 2026-05-08 19:05 | 44.11260 | 21.37411 | 23252 ft | 414 kts | 336° |
| 2026-05-08 19:05 | 44.13940 | 21.35809 | 23675 ft | 417 kts | 336° |
| 2026-05-08 19:05 | 44.16603 | 21.34216 | 24072 ft | 419 kts | 336° |
| 2026-05-08 19:06 | 44.19321 | 21.32587 | 24459 ft | 422 kts | 335° |
| 2026-05-08 19:06 | 44.22021 | 21.30958 | 24828 ft | 425 kts | 335° |
| 2026-05-08 19:06 | 44.24752 | 21.29308 | 25226 ft | 427 kts | 335° |
| 2026-05-08 19:06 | 44.27477 | 21.27660 | 25596 ft | 429 kts | 335° |
| 2026-05-08 19:07 | 44.29287 | 21.26564 | 25827 ft | 431 kts | 335° |
| 2026-05-08 19:07 | 44.32982 | 21.24327 | 26310 ft | 433 kts | 335° |
| 2026-05-08 19:07 | 44.35751 | 21.22650 | 26664 ft | 435 kts | 335° |
| 2026-05-08 19:07 | 44.38528 | 21.20968 | 26995 ft | 437 kts | 335° |
| 2026-05-08 19:08 | 44.41333 | 21.19268 | 27330 ft | 439 kts | 335° |
| 2026-05-08 19:08 | 44.44150 | 21.17558 | 27666 ft | 441 kts | 335° |
| 2026-05-08 19:08 | 44.46975 | 21.15842 | 27977 ft | 443 kts | 335° |
| 2026-05-08 19:08 | 44.49809 | 21.14118 | 28286 ft | 445 kts | 335° |
| 2026-05-08 19:09 | 44.52661 | 21.12381 | 28610 ft | 447 kts | 335° |
| 2026-05-08 19:09 | 44.55483 | 21.10661 | 28903 ft | 448 kts | 335° |
| 2026-05-08 19:09 | 44.58367 | 21.08901 | 29202 ft | 450 kts | 335° |
| 2026-05-08 19:09 | 44.61218 | 21.07160 | 29489 ft | 452 kts | 335° |
| 2026-05-08 19:10 | 44.64093 | 21.05401 | 29769 ft | 453 kts | 335° |
| 2026-05-08 19:10 | 44.66985 | 21.03631 | 30029 ft | 455 kts | 335° |
| 2026-05-08 19:10 | 44.69886 | 21.01853 | 30305 ft | 457 kts | 335° |
| 2026-05-08 19:10 | 44.72798 | 21.00066 | 30558 ft | 459 kts | 335° |
| 2026-05-08 19:11 | 44.75775 | 20.98238 | 30814 ft | 460 kts | 334° |
| 2026-05-08 19:11 | 44.78720 | 20.96427 | 31070 ft | 462 kts | 334° |
| 2026-05-08 19:11 | 44.81666 | 20.94614 | 31423 ft | 461 kts | 334° |
| 2026-05-08 19:11 | 44.84591 | 20.92811 | 31790 ft | 459 kts | 334° |
| 2026-05-08 19:12 | 44.87500 | 20.91016 | 32119 ft | 459 kts | 334° |
| 2026-05-08 19:12 | 44.90420 | 20.89212 | 32431 ft | 458 kts | 334° |
| 2026-05-08 19:12 | 44.93324 | 20.87416 | 32735 ft | 458 kts | 333° |
| 2026-05-08 19:12 | 44.96254 | 20.85603 | 33039 ft | 457 kts | 333° |
| 2026-05-08 19:13 | 44.99155 | 20.83805 | 33345 ft | 457 kts | 333° |
| 2026-05-08 19:13 | 45.02063 | 20.82000 | 33649 ft | 456 kts | 333° |
| 2026-05-08 19:13 | 45.04926 | 20.80222 | 33936 ft | 455 kts | 333° |
| 2026-05-08 19:13 | 45.07820 | 20.78422 | 34220 ft | 455 kts | 333° |
| 2026-05-08 19:14 | 45.10711 | 20.76622 | 34485 ft | 454 kts | 333° |
| 2026-05-08 19:14 | 45.13628 | 20.74804 | 34722 ft | 454 kts | 333° |
| 2026-05-08 19:14 | 45.16494 | 20.73016 | 34941 ft | 453 kts | 332° |
| 2026-05-08 19:14 | 45.19363 | 20.71224 | 35167 ft | 452 kts | 333° |
| 2026-05-08 19:15 | 45.22227 | 20.69434 | 35402 ft | 451 kts | 332° |
| 2026-05-08 19:15 | 45.25111 | 20.67628 | 35603 ft | 451 kts | 333° |
| 2026-05-08 19:15 | 45.27974 | 20.65834 | 35807 ft | 451 kts | 332° |
| 2026-05-08 19:15 | 45.30836 | 20.64038 | 36015 ft | 450 kts | 332° |
| 2026-05-08 19:16 | 45.33682 | 20.62251 | 36101 ft | 450 kts | 332° |
| 2026-05-08 19:16 | 45.39398 | 20.58655 | 36116 ft | 447 kts | 332° |
| 2026-05-08 19:17 | 45.45103 | 20.55058 | 36114 ft | 449 kts | 332° |
| 2026-05-08 19:17 | 45.50810 | 20.51452 | 36116 ft | 449 kts | 332° |
| 2026-05-08 19:18 | 45.56490 | 20.47856 | 36115 ft | 449 kts | 332° |
| 2026-05-08 19:18 | 45.62182 | 20.44243 | 36123 ft | 449 kts | 332° |
| 2026-05-08 19:19 | 45.67880 | 20.40618 | 36130 ft | 449 kts | 332° |
| 2026-05-08 19:19 | 45.73573 | 20.36989 | 36133 ft | 450 kts | 332° |
| 2026-05-08 19:20 | 45.79286 | 20.33338 | 36133 ft | 450 kts | 331° |
| 2026-05-08 19:20 | 45.84983 | 20.29690 | 36134 ft | 450 kts | 331° |
| 2026-05-08 19:21 | 45.90676 | 20.26036 | 36137 ft | 450 kts | 331° |
| 2026-05-08 19:21 | 45.96410 | 20.22347 | 36133 ft | 450 kts | 331° |
| 2026-05-08 19:22 | 46.02105 | 20.18675 | 36131 ft | 449 kts | 331° |
| 2026-05-08 19:22 | 46.07791 | 20.15001 | 36123 ft | 449 kts | 330° |
| 2026-05-08 19:23 | 46.13477 | 20.11317 | 36118 ft | 449 kts | 330° |
| 2026-05-08 19:23 | 46.19035 | 20.07318 | 36113 ft | 445 kts | 326° |
| 2026-05-08 19:24 | 46.24442 | 20.02980 | 36108 ft | 445 kts | 326° |
| 2026-05-08 19:24 | 46.29840 | 19.98648 | 36107 ft | 445 kts | 326° |
| 2026-05-08 19:25 | 46.35210 | 19.94326 | 36106 ft | 445 kts | 326° |
| 2026-05-08 19:25 | 46.40613 | 19.89969 | 36111 ft | 444 kts | 326° |
| 2026-05-08 19:26 | 46.45989 | 19.85623 | 36109 ft | 445 kts | 326° |
| 2026-05-08 19:26 | 46.51408 | 19.81233 | 36114 ft | 444 kts | 326° |
| 2026-05-08 19:27 | 46.56791 | 19.76860 | 36117 ft | 444 kts | 325° |
| 2026-05-08 19:27 | 46.62190 | 19.72466 | 36118 ft | 445 kts | 325° |
| 2026-05-08 19:28 | 46.67546 | 19.68095 | 36123 ft | 444 kts | 326° |
| 2026-05-08 19:28 | 46.72984 | 19.63649 | 36124 ft | 444 kts | 325° |
| 2026-05-08 19:29 | 46.78352 | 19.59248 | 36124 ft | 444 kts | 325° |
| 2026-05-08 19:29 | 46.83695 | 19.54859 | 36124 ft | 444 kts | 325° |
| 2026-05-08 19:30 | 46.89078 | 19.50427 | 36124 ft | 444 kts | 325° |
| 2026-05-08 19:30 | 46.94461 | 19.45984 | 36122 ft | 444 kts | 325° |
| 2026-05-08 19:31 | 46.99833 | 19.41540 | 36117 ft | 443 kts | 325° |
| 2026-05-08 19:31 | 47.05206 | 19.37085 | 36118 ft | 443 kts | 325° |
| 2026-05-08 19:32 | 47.10572 | 19.32624 | 36119 ft | 443 kts | 324° |
| 2026-05-08 19:32 | 47.15997 | 19.28104 | 36121 ft | 443 kts | 324° |
| 2026-05-08 19:33 | 47.21401 | 19.23592 | 36119 ft | 442 kts | 324° |
| 2026-05-08 19:33 | 47.26765 | 19.19101 | 36126 ft | 442 kts | 324° |
| 2026-05-08 19:34 | 47.31874 | 19.14268 | 36130 ft | 434 kts | 313° |
| 2026-05-08 19:34 | 47.35693 | 19.07577 | 36127 ft | 421 kts | 295° |
| 2026-05-08 19:34 | 47.37004 | 19.03741 | 35991 ft | 416 kts | 289° |
| 2026-05-08 19:35 | 47.38185 | 18.99918 | 35688 ft | 414 kts | 289° |
| 2026-05-08 19:35 | 47.39377 | 18.95956 | 34913 ft | 421 kts | 288° |
| 2026-05-08 19:35 | 47.40557 | 18.92025 | 33768 ft | 427 kts | 289° |
| 2026-05-08 19:35 | 47.41774 | 18.87971 | 32333 ft | 435 kts | 289° |
| 2026-05-08 19:36 | 47.42990 | 18.83919 | 31019 ft | 438 kts | 289° |
| 2026-05-08 19:36 | 47.44239 | 18.79748 | 29782 ft | 439 kts | 290° |
| 2026-05-08 19:36 | 47.45457 | 18.75672 | 28594 ft | 441 kts | 290° |
| 2026-05-08 19:36 | 47.46688 | 18.71547 | 27387 ft | 442 kts | 291° |
| 2026-05-08 19:37 | 47.47935 | 18.67361 | 26278 ft | 440 kts | 291° |
| 2026-05-08 19:37 | 47.49157 | 18.63254 | 25805 ft | 425 kts | 291° |
| 2026-05-08 19:37 | 47.50335 | 18.59285 | 25574 ft | 412 kts | 291° |
| 2026-05-08 19:37 | 47.51467 | 18.55463 | 25278 ft | 403 kts | 291° |
| 2026-05-08 19:38 | 47.52596 | 18.51646 | 24743 ft | 399 kts | 291° |
| 2026-05-08 19:38 | 47.53698 | 18.47914 | 24168 ft | 396 kts | 292° |
| 2026-05-08 19:38 | 47.54822 | 18.44103 | 23554 ft | 394 kts | 292° |
| 2026-05-08 19:38 | 47.55914 | 18.40397 | 23000 ft | 392 kts | 292° |
| 2026-05-08 19:39 | 47.57002 | 18.36698 | 22443 ft | 389 kts | 292° |
| 2026-05-08 19:39 | 47.58081 | 18.33024 | 21883 ft | 387 kts | 291° |
| 2026-05-08 19:39 | 47.59140 | 18.29414 | 21342 ft | 384 kts | 291° |
| 2026-05-08 19:39 | 47.60207 | 18.25771 | 20814 ft | 381 kts | 291° |
| 2026-05-08 19:40 | 47.61271 | 18.22132 | 20287 ft | 378 kts | 291° |
| 2026-05-08 19:40 | 47.62328 | 18.18512 | 19795 ft | 374 kts | 291° |
| 2026-05-08 19:40 | 47.63390 | 18.14869 | 19288 ft | 370 kts | 291° |
| 2026-05-08 19:40 | 47.64415 | 18.11347 | 18799 ft | 367 kts | 291° |
| 2026-05-08 19:41 | 47.65419 | 18.07895 | 18317 ft | 363 kts | 291° |
| 2026-05-08 19:41 | 47.66411 | 18.04477 | 17828 ft | 360 kts | 291° |
| 2026-05-08 19:41 | 47.67336 | 18.01287 | 17389 ft | 356 kts | 291° |
| 2026-05-08 19:41 | 47.68306 | 17.97937 | 16924 ft | 353 kts | 291° |
| 2026-05-08 19:42 | 47.69272 | 17.94593 | 16472 ft | 349 kts | 291° |
| 2026-05-08 19:42 | 47.70226 | 17.91289 | 15995 ft | 346 kts | 292° |
| 2026-05-08 19:42 | 47.71171 | 17.88013 | 15537 ft | 342 kts | 291° |
| 2026-05-08 19:42 | 47.72099 | 17.84787 | 15086 ft | 339 kts | 292° |
| 2026-05-08 19:43 | 47.73014 | 17.81606 | 14668 ft | 335 kts | 292° |
| 2026-05-08 19:43 | 47.73928 | 17.78424 | 14225 ft | 333 kts | 291° |
| 2026-05-08 19:43 | 47.74810 | 17.75346 | 13786 ft | 331 kts | 292° |
| 2026-05-08 19:43 | 47.75732 | 17.72126 | 13349 ft | 328 kts | 292° |
| 2026-05-08 19:44 | 47.76615 | 17.69037 | 12911 ft | 325 kts | 292° |
| 2026-05-08 19:44 | 47.77499 | 17.65943 | 12479 ft | 323 kts | 292° |
| 2026-05-08 19:44 | 47.78363 | 17.62916 | 12054 ft | 320 kts | 292° |
| 2026-05-08 19:44 | 47.79225 | 17.59888 | 11625 ft | 318 kts | 293° |
| 2026-05-08 19:45 | 47.80084 | 17.56870 | 11196 ft | 316 kts | 293° |
| 2026-05-08 19:45 | 47.80931 | 17.53889 | 10797 ft | 313 kts | 293° |
| 2026-05-08 19:45 | 47.81771 | 17.50930 | 10423 ft | 309 kts | 293° |
| 2026-05-08 19:45 | 47.82599 | 17.48011 | 10202 ft | 300 kts | 293° |
| 2026-05-08 19:46 | 47.83390 | 17.45216 | 10046 ft | 287 kts | 293° |
| 2026-05-08 19:46 | 47.84145 | 17.42545 | 9849 ft | 275 kts | 294° |
| 2026-05-08 19:46 | 47.85590 | 17.37429 | 9296 ft | 261 kts | 294° |
| 2026-05-08 19:47 | 47.86290 | 17.34945 | 8983 ft | 260 kts | 293° |
| 2026-05-08 19:47 | 47.86988 | 17.32468 | 8677 ft | 258 kts | 293° |
| 2026-05-08 19:47 | 47.87680 | 17.30008 | 8359 ft | 257 kts | 293° |
| 2026-05-08 19:47 | 47.88372 | 17.27552 | 8055 ft | 256 kts | 293° |
| 2026-05-08 19:48 | 47.89052 | 17.25129 | 7748 ft | 255 kts | 293° |
| 2026-05-08 19:48 | 47.89738 | 17.22684 | 7445 ft | 254 kts | 293° |
| 2026-05-08 19:48 | 47.90419 | 17.20258 | 7148 ft | 253 kts | 292° |
| 2026-05-08 19:48 | 47.91090 | 17.17858 | 6854 ft | 251 kts | 292° |
| 2026-05-08 19:49 | 47.91763 | 17.15454 | 6554 ft | 251 kts | 293° |
| 2026-05-08 19:49 | 47.92438 | 17.13074 | 6246 ft | 250 kts | 295° |
| 2026-05-08 19:49 | 47.93211 | 17.10754 | 5952 ft | 249 kts | 297° |
| 2026-05-08 19:49 | 47.93930 | 17.08624 | 5687 ft | 248 kts | 296° |
| 2026-05-08 19:50 | 47.94696 | 17.06339 | 5398 ft | 246 kts | 297° |
| 2026-05-08 19:50 | 47.95494 | 17.04090 | 5112 ft | 246 kts | 300° |
| 2026-05-08 19:50 | 47.96354 | 17.01858 | 4814 ft | 244 kts | 301° |
| 2026-05-08 19:50 | 47.97197 | 16.99667 | 4538 ft | 243 kts | 300° |
| 2026-05-08 19:51 | 47.98009 | 16.97454 | 4280 ft | 243 kts | 298° |
| 2026-05-08 19:51 | 47.98762 | 16.95228 | 3987 ft | 243 kts | 297° |
| 2026-05-08 19:51 | 47.99488 | 16.92937 | 3708 ft | 243 kts | 296° |
| 2026-05-08 19:51 | 48.00195 | 16.90640 | 3429 ft | 242 kts | 296° |
| 2026-05-08 19:52 | 48.00902 | 16.88377 | 3159 ft | 242 kts | 297° |
| 2026-05-08 19:52 | 48.01626 | 16.86122 | 3044 ft | 238 kts | 298° |
| 2026-05-08 19:52 | 48.02336 | 16.83952 | 2983 ft | 229 kts | 298° |
| 2026-05-08 19:52 | 48.03030 | 16.81842 | 2987 ft | 216 kts | 298° |
| 2026-05-08 19:53 | 48.03671 | 16.79873 | 2986 ft | 205 kts | 298° |
| 2026-05-08 19:53 | 48.04276 | 16.78002 | 2989 ft | 199 kts | 298° |
| 2026-05-08 19:53 | 48.04881 | 16.76128 | 2992 ft | 200 kts | 298° |
| 2026-05-08 19:53 | 48.05472 | 16.74295 | 2992 ft | 193 kts | 298° |
| 2026-05-08 19:54 | 48.06046 | 16.72525 | 2784 ft | 182 kts | 298° |
| 2026-05-08 19:54 | 48.06576 | 16.70891 | 2566 ft | 167 kts | 298° |
| 2026-05-08 19:54 | 48.07055 | 16.69414 | 2338 ft | 151 kts | 299° |
| 2026-05-08 19:54 | 48.07498 | 16.68048 | 2147 ft | 144 kts | 298° |
| 2026-05-08 19:55 | 48.07946 | 16.66659 | 1937 ft | 148 kts | 299° |
| 2026-05-08 19:55 | 48.08393 | 16.65306 | 1772 ft | 147 kts | 299° |
| 2026-05-08 19:55 | 48.08841 | 16.63916 | 1600 ft | 148 kts | 298° |
| 2026-05-08 19:55 | 48.09285 | 16.62542 | 1389 ft | 145 kts | 298° |
| 2026-05-08 19:56 | 48.09725 | 16.61196 | 1183 ft | 142 kts | 299° |
| 2026-05-08 19:56 | 48.10157 | 16.59868 | 994 ft | 144 kts | 298° |
| 2026-05-08 19:56 | 48.10587 | 16.58536 | 792 ft | 140 kts | 297° |
| 2026-05-08 19:56 | 48.11020 | 16.57212 | 628 ft | 139 kts | 297° |
| 2026-05-08 19:57 | 48.11406 | 16.56030 | 608 ft | 104 kts | 296° |
| 2026-05-08 19:57 | 48.11635 | 16.55325 | 608 ft | 60 kts | 296° |
| 2026-05-08 19:57 | 48.11709 | 16.55103 | 608 ft | 52 kts | 298° |